sensor_id;sensor_type;location;lat;lon;timestamp;P1;durP1;ratioP1;P2;durP2;ratioP2
11596;SDS011;5854;48.072;16.286;2024-03-08T00:00:22;49.17;;;21.02;;
11596;SDS011;5854;48.072;16.286;2024-03-08T00:02:49;49.58;;;20.85;;
11596;SDS011;5854;48.072;16.286;2024-03-08T00:05:18;44.05;;;21.40;;
11596;SDS011;5854;48.072;16.286;2024-03-08T00:07:46;47.65;;;22.42;;
11596;SDS011;5854;48.072;16.286;2024-03-08T00:10:15;46.03;;;21.40;;
11596;SDS011;5854;48.072;16.286;2024-03-08T00:12:43;52.30;;;21.55;;
11596;SDS011;5854;48.072;16.286;2024-03-08T00:15:11;46.85;;;21.55;;
11596;SDS011;5854;48.072;16.286;2024-03-08T00:17:40;60.67;;;21.88;;
11596;SDS011;5854;48.072;16.286;2024-03-08T00:20:08;46.03;;;22.75;;
11596;SDS011;5854;48.072;16.286;2024-03-08T00:22:37;44.03;;;22.38;;
11596;SDS011;5854;48.072;16.286;2024-03-08T00:25:05;48.75;;;22.52;;
11596;SDS011;5854;48.072;16.286;2024-03-08T00:27:34;44.60;;;20.70;;
11596;SDS011;5854;48.072;16.286;2024-03-08T00:30:02;35.80;;;19.42;;
11596;SDS011;5854;48.072;16.286;2024-03-08T00:32:30;43.00;;;21.70;;
11596;SDS011;5854;48.072;16.286;2024-03-08T00:34:58;45.00;;;22.13;;
11596;SDS011;5854;48.072;16.286;2024-03-08T00:37:25;51.20;;;23.15;;
11596;SDS011;5854;48.072;16.286;2024-03-08T00:39:54;48.33;;;21.85;;
11596;SDS011;5854;48.072;16.286;2024-03-08T00:42:21;48.20;;;22.55;;
11596;SDS011;5854;48.072;16.286;2024-03-08T00:44:49;53.75;;;22.52;;
11596;SDS011;5854;48.072;16.286;2024-03-08T00:47:16;46.95;;;21.25;;
11596;SDS011;5854;48.072;16.286;2024-03-08T00:49:44;52.17;;;22.73;;
11596;SDS011;5854;48.072;16.286;2024-03-08T00:52:11;47.97;;;21.60;;
11596;SDS011;5854;48.072;16.286;2024-03-08T00:54:39;47.55;;;22.73;;
11596;SDS011;5854;48.072;16.286;2024-03-08T00:57:09;44.03;;;21.83;;
11596;SDS011;5854;48.072;16.286;2024-03-08T00:59:37;43.38;;;21.63;;
11596;SDS011;5854;48.072;16.286;2024-03-08T01:02:05;54.35;;;22.30;;
11596;SDS011;5854;48.072;16.286;2024-03-08T01:04:34;51.75;;;21.98;;
11596;SDS011;5854;48.072;16.286;2024-03-08T01:07:01;58.03;;;23.50;;
11596;SDS011;5854;48.072;16.286;2024-03-08T01:09:28;50.80;;;20.80;;
11596;SDS011;5854;48.072;16.286;2024-03-08T01:11:56;48.42;;;22.33;;
11596;SDS011;5854;48.072;16.286;2024-03-08T01:14:24;50.10;;;23.33;;
11596;SDS011;5854;48.072;16.286;2024-03-08T01:16:52;45.17;;;20.20;;
11596;SDS011;5854;48.072;16.286;2024-03-08T01:19:20;47.67;;;21.33;;
11596;SDS011;5854;48.072;16.286;2024-03-08T01:21:47;56.33;;;21.55;;
11596;SDS011;5854;48.072;16.286;2024-03-08T01:24:15;50.72;;;21.45;;
11596;SDS011;5854;48.072;16.286;2024-03-08T01:26:42;51.88;;;24.05;;
11596;SDS011;5854;48.072;16.286;2024-03-08T01:29:10;45.00;;;21.38;;
11596;SDS011;5854;48.072;16.286;2024-03-08T01:31:38;45.13;;;21.13;;
11596;SDS011;5854;48.072;16.286;2024-03-08T01:34:06;45.85;;;20.02;;
11596;SDS011;5854;48.072;16.286;2024-03-08T01:36:33;52.47;;;22.25;;
11596;SDS011;5854;48.072;16.286;2024-03-08T01:39:02;51.97;;;21.63;;
11596;SDS011;5854;48.072;16.286;2024-03-08T01:41:33;53.10;;;22.17;;
11596;SDS011;5854;48.072;16.286;2024-03-08T01:44:00;43.78;;;21.95;;
11596;SDS011;5854;48.072;16.286;2024-03-08T01:46:29;48.17;;;22.95;;
11596;SDS011;5854;48.072;16.286;2024-03-08T01:48:59;46.63;;;21.20;;
11596;SDS011;5854;48.072;16.286;2024-03-08T01:51:27;50.28;;;21.60;;
11596;SDS011;5854;48.072;16.286;2024-03-08T01:53:56;42.00;;;20.13;;
11596;SDS011;5854;48.072;16.286;2024-03-08T01:56:24;42.30;;;21.20;;
11596;SDS011;5854;48.072;16.286;2024-03-08T01:58:52;52.25;;;23.58;;
11596;SDS011;5854;48.072;16.286;2024-03-08T02:01:19;49.15;;;21.75;;
11596;SDS011;5854;48.072;16.286;2024-03-08T02:03:47;50.15;;;22.88;;
11596;SDS011;5854;48.072;16.286;2024-03-08T02:06:15;53.00;;;23.27;;
11596;SDS011;5854;48.072;16.286;2024-03-08T02:08:43;57.47;;;24.02;;
11596;SDS011;5854;48.072;16.286;2024-03-08T02:11:11;44.90;;;21.23;;
11596;SDS011;5854;48.072;16.286;2024-03-08T02:13:38;42.38;;;21.60;;
11596;SDS011;5854;48.072;16.286;2024-03-08T02:16:06;49.28;;;23.58;;
11596;SDS011;5854;48.072;16.286;2024-03-08T02:18:34;51.08;;;22.30;;
11596;SDS011;5854;48.072;16.286;2024-03-08T02:21:06;52.10;;;23.55;;
11596;SDS011;5854;48.072;16.286;2024-03-08T02:23:33;45.88;;;21.90;;
11596;SDS011;5854;48.072;16.286;2024-03-08T02:26:02;46.95;;;23.30;;
11596;SDS011;5854;48.072;16.286;2024-03-08T02:28:30;44.75;;;20.85;;
11596;SDS011;5854;48.072;16.286;2024-03-08T02:30:58;45.65;;;22.08;;
11596;SDS011;5854;48.072;16.286;2024-03-08T02:33:26;46.30;;;22.40;;
11596;SDS011;5854;48.072;16.286;2024-03-08T02:35:54;48.80;;;22.30;;
11596;SDS011;5854;48.072;16.286;2024-03-08T02:38:23;43.90;;;21.38;;
11596;SDS011;5854;48.072;16.286;2024-03-08T02:40:51;43.78;;;21.02;;
11596;SDS011;5854;48.072;16.286;2024-03-08T02:43:20;50.67;;;23.48;;
11596;SDS011;5854;48.072;16.286;2024-03-08T02:45:49;47.67;;;19.70;;
11596;SDS011;5854;48.072;16.286;2024-03-08T02:48:18;51.55;;;21.35;;
11596;SDS011;5854;48.072;16.286;2024-03-08T02:50:47;40.05;;;22.70;;
11596;SDS011;5854;48.072;16.286;2024-03-08T02:53:16;47.45;;;22.67;;
11596;SDS011;5854;48.072;16.286;2024-03-08T02:55:45;42.65;;;22.05;;
11596;SDS011;5854;48.072;16.286;2024-03-08T02:58:12;43.08;;;20.67;;
11596;SDS011;5854;48.072;16.286;2024-03-08T03:00:40;45.78;;;21.20;;
11596;SDS011;5854;48.072;16.286;2024-03-08T03:03:08;43.03;;;21.73;;
11596;SDS011;5854;48.072;16.286;2024-03-08T03:05:36;46.72;;;20.30;;
11596;SDS011;5854;48.072;16.286;2024-03-08T03:08:06;46.47;;;22.35;;
11596;SDS011;5854;48.072;16.286;2024-03-08T03:10:34;45.95;;;23.38;;
11596;SDS011;5854;48.072;16.286;2024-03-08T03:13:03;31.88;;;17.40;;
11596;SDS011;5854;48.072;16.286;2024-03-08T03:15:31;43.50;;;21.60;;
11596;SDS011;5854;48.072;16.286;2024-03-08T03:17:59;47.00;;;20.17;;
11596;SDS011;5854;48.072;16.286;2024-03-08T03:20:27;49.60;;;22.35;;
11596;SDS011;5854;48.072;16.286;2024-03-08T03:22:57;50.92;;;22.77;;
11596;SDS011;5854;48.072;16.286;2024-03-08T03:25:26;40.45;;;20.40;;
11596;SDS011;5854;48.072;16.286;2024-03-08T03:27:59;50.97;;;23.08;;
11596;SDS011;5854;48.072;16.286;2024-03-08T03:30:28;49.40;;;23.00;;
11596;SDS011;5854;48.072;16.286;2024-03-08T03:32:58;44.13;;;21.88;;
11596;SDS011;5854;48.072;16.286;2024-03-08T03:35:26;47.42;;;23.50;;
11596;SDS011;5854;48.072;16.286;2024-03-08T03:37:54;51.28;;;23.02;;
11596;SDS011;5854;48.072;16.286;2024-03-08T03:40:31;52.55;;;22.52;;
11596;SDS011;5854;48.072;16.286;2024-03-08T03:42:59;47.80;;;22.35;;
11596;SDS011;5854;48.072;16.286;2024-03-08T03:45:28;45.55;;;21.42;;
11596;SDS011;5854;48.072;16.286;2024-03-08T03:47:58;40.72;;;21.02;;
11596;SDS011;5854;48.072;16.286;2024-03-08T03:50:27;48.50;;;23.17;;
11596;SDS011;5854;48.072;16.286;2024-03-08T03:52:54;50.63;;;21.73;;
11596;SDS011;5854;48.072;16.286;2024-03-08T03:55:22;42.72;;;20.73;;
11596;SDS011;5854;48.072;16.286;2024-03-08T03:57:49;47.22;;;23.02;;
11596;SDS011;5854;48.072;16.286;2024-03-08T04:00:17;44.05;;;22.13;;
11596;SDS011;5854;48.072;16.286;2024-03-08T04:02:46;51.63;;;22.77;;
11596;SDS011;5854;48.072;16.286;2024-03-08T04:05:14;45.50;;;22.58;;
11596;SDS011;5854;48.072;16.286;2024-03-08T04:07:42;53.08;;;23.05;;
11596;SDS011;5854;48.072;16.286;2024-03-08T04:10:10;44.00;;;21.70;;
11596;SDS011;5854;48.072;16.286;2024-03-08T04:12:38;47.88;;;21.88;;
11596;SDS011;5854;48.072;16.286;2024-03-08T04:15:06;52.17;;;23.40;;
11596;SDS011;5854;48.072;16.286;2024-03-08T04:17:36;42.97;;;21.42;;
11596;SDS011;5854;48.072;16.286;2024-03-08T04:20:05;43.38;;;20.50;;
11596;SDS011;5854;48.072;16.286;2024-03-08T04:22:35;39.38;;;20.70;;
11596;SDS011;5854;48.072;16.286;2024-03-08T04:25:02;50.33;;;22.55;;
11596;SDS011;5854;48.072;16.286;2024-03-08T04:27:31;46.35;;;22.05;;
11596;SDS011;5854;48.072;16.286;2024-03-08T04:29:59;51.88;;;24.08;;
11596;SDS011;5854;48.072;16.286;2024-03-08T04:32:26;51.13;;;22.23;;
11596;SDS011;5854;48.072;16.286;2024-03-08T04:34:54;52.35;;;22.95;;
11596;SDS011;5854;48.072;16.286;2024-03-08T04:37:23;43.83;;;21.65;;
11596;SDS011;5854;48.072;16.286;2024-03-08T04:39:50;50.53;;;22.52;;
11596;SDS011;5854;48.072;16.286;2024-03-08T04:42:18;47.13;;;21.63;;
11596;SDS011;5854;48.072;16.286;2024-03-08T04:44:45;49.00;;;21.48;;
11596;SDS011;5854;48.072;16.286;2024-03-08T04:47:14;48.55;;;21.80;;
11596;SDS011;5854;48.072;16.286;2024-03-08T04:49:43;52.75;;;23.45;;
11596;SDS011;5854;48.072;16.286;2024-03-08T04:52:10;51.58;;;22.92;;
11596;SDS011;5854;48.072;16.286;2024-03-08T04:54:39;41.95;;;22.00;;
11596;SDS011;5854;48.072;16.286;2024-03-08T04:57:06;57.65;;;22.73;;
11596;SDS011;5854;48.072;16.286;2024-03-08T04:59:33;49.03;;;21.90;;
11596;SDS011;5854;48.072;16.286;2024-03-08T05:02:01;54.70;;;22.10;;
11596;SDS011;5854;48.072;16.286;2024-03-08T05:04:28;55.05;;;23.02;;
11596;SDS011;5854;48.072;16.286;2024-03-08T05:06:56;52.78;;;23.92;;
11596;SDS011;5854;48.072;16.286;2024-03-08T05:09:30;45.75;;;22.98;;
11596;SDS011;5854;48.072;16.286;2024-03-08T05:11:59;58.85;;;23.48;;
11596;SDS011;5854;48.072;16.286;2024-03-08T05:14:26;49.88;;;23.30;;
11596;SDS011;5854;48.072;16.286;2024-03-08T05:16:54;53.08;;;24.60;;
11596;SDS011;5854;48.072;16.286;2024-03-08T05:19:22;48.08;;;23.02;;
11596;SDS011;5854;48.072;16.286;2024-03-08T05:21:49;53.80;;;23.75;;
11596;SDS011;5854;48.072;16.286;2024-03-08T05:24:17;57.63;;;24.80;;
11596;SDS011;5854;48.072;16.286;2024-03-08T05:26:44;47.60;;;23.77;;
11596;SDS011;5854;48.072;16.286;2024-03-08T05:29:14;43.17;;;20.75;;
11596;SDS011;5854;48.072;16.286;2024-03-08T05:31:43;51.25;;;22.23;;
11596;SDS011;5854;48.072;16.286;2024-03-08T05:34:21;48.50;;;23.83;;
11596;SDS011;5854;48.072;16.286;2024-03-08T05:36:55;54.67;;;24.90;;
11596;SDS011;5854;48.072;16.286;2024-03-08T05:39:23;47.75;;;22.20;;
11596;SDS011;5854;48.072;16.286;2024-03-08T05:41:50;61.58;;;26.70;;
11596;SDS011;5854;48.072;16.286;2024-03-08T05:44:19;56.85;;;25.80;;
11596;SDS011;5854;48.072;16.286;2024-03-08T05:46:47;48.17;;;23.63;;
11596;SDS011;5854;48.072;16.286;2024-03-08T05:49:15;52.78;;;24.20;;
11596;SDS011;5854;48.072;16.286;2024-03-08T05:51:43;53.40;;;24.17;;
11596;SDS011;5854;48.072;16.286;2024-03-08T05:54:12;62.22;;;24.70;;
11596;SDS011;5854;48.072;16.286;2024-03-08T05:56:40;47.00;;;24.77;;
11596;SDS011;5854;48.072;16.286;2024-03-08T05:59:09;60.83;;;26.10;;
11596;SDS011;5854;48.072;16.286;2024-03-08T06:01:38;54.65;;;24.88;;
11596;SDS011;5854;48.072;16.286;2024-03-08T06:04:06;55.90;;;27.23;;
11596;SDS011;5854;48.072;16.286;2024-03-08T06:06:33;60.95;;;26.15;;
11596;SDS011;5854;48.072;16.286;2024-03-08T06:09:02;53.40;;;22.48;;
11596;SDS011;5854;48.072;16.286;2024-03-08T06:11:36;52.20;;;24.63;;
11596;SDS011;5854;48.072;16.286;2024-03-08T06:14:03;50.83;;;25.55;;
11596;SDS011;5854;48.072;16.286;2024-03-08T06:16:31;54.13;;;24.92;;
11596;SDS011;5854;48.072;16.286;2024-03-08T06:19:00;45.60;;;23.15;;
11596;SDS011;5854;48.072;16.286;2024-03-08T06:21:28;53.03;;;25.50;;
11596;SDS011;5854;48.072;16.286;2024-03-08T06:23:56;54.47;;;25.38;;
11596;SDS011;5854;48.072;16.286;2024-03-08T06:26:23;67.28;;;25.42;;
11596;SDS011;5854;48.072;16.286;2024-03-08T06:28:53;48.83;;;21.48;;
11596;SDS011;5854;48.072;16.286;2024-03-08T06:31:31;57.42;;;26.20;;
11596;SDS011;5854;48.072;16.286;2024-03-08T06:34:00;60.28;;;26.45;;
11596;SDS011;5854;48.072;16.286;2024-03-08T06:36:27;57.92;;;26.70;;
11596;SDS011;5854;48.072;16.286;2024-03-08T06:38:55;59.10;;;24.33;;
11596;SDS011;5854;48.072;16.286;2024-03-08T06:41:23;62.45;;;25.90;;
11596;SDS011;5854;48.072;16.286;2024-03-08T06:43:50;61.70;;;25.35;;
11596;SDS011;5854;48.072;16.286;2024-03-08T06:46:22;56.03;;;25.80;;
11596;SDS011;5854;48.072;16.286;2024-03-08T06:48:49;64.43;;;25.80;;
11596;SDS011;5854;48.072;16.286;2024-03-08T06:51:18;57.97;;;25.52;;
11596;SDS011;5854;48.072;16.286;2024-03-08T06:53:46;58.50;;;25.30;;
11596;SDS011;5854;48.072;16.286;2024-03-08T06:56:14;57.00;;;26.80;;
11596;SDS011;5854;48.072;16.286;2024-03-08T06:58:41;59.47;;;26.98;;
11596;SDS011;5854;48.072;16.286;2024-03-08T07:01:08;56.80;;;26.05;;
11596;SDS011;5854;48.072;16.286;2024-03-08T07:03:39;57.55;;;25.10;;
11596;SDS011;5854;48.072;16.286;2024-03-08T07:06:09;51.72;;;22.80;;
11596;SDS011;5854;48.072;16.286;2024-03-08T07:08:38;57.92;;;26.90;;
11596;SDS011;5854;48.072;16.286;2024-03-08T07:11:05;55.47;;;25.27;;
11596;SDS011;5854;48.072;16.286;2024-03-08T07:13:32;60.28;;;25.67;;
11596;SDS011;5854;48.072;16.286;2024-03-08T07:16:00;57.03;;;24.50;;
11596;SDS011;5854;48.072;16.286;2024-03-08T07:18:27;65.88;;;25.23;;
11596;SDS011;5854;48.072;16.286;2024-03-08T07:20:55;53.67;;;26.10;;
11596;SDS011;5854;48.072;16.286;2024-03-08T07:23:22;60.50;;;26.55;;
11596;SDS011;5854;48.072;16.286;2024-03-08T07:26:08;57.28;;;25.92;;
11596;SDS011;5854;48.072;16.286;2024-03-08T07:28:36;63.72;;;26.25;;
11596;SDS011;5854;48.072;16.286;2024-03-08T07:31:03;59.85;;;26.25;;
11596;SDS011;5854;48.072;16.286;2024-03-08T07:33:46;70.35;;;27.48;;
11596;SDS011;5854;48.072;16.286;2024-03-08T07:36:15;52.50;;;24.67;;
11596;SDS011;5854;48.072;16.286;2024-03-08T07:38:42;64.38;;;26.95;;
11596;SDS011;5854;48.072;16.286;2024-03-08T07:41:13;71.47;;;28.33;;
11596;SDS011;5854;48.072;16.286;2024-03-08T07:43:42;60.55;;;26.23;;
11596;SDS011;5854;48.072;16.286;2024-03-08T07:46:10;64.97;;;25.20;;
11596;SDS011;5854;48.072;16.286;2024-03-08T07:48:38;64.38;;;26.88;;
11596;SDS011;5854;48.072;16.286;2024-03-08T07:51:06;62.35;;;25.88;;
11596;SDS011;5854;48.072;16.286;2024-03-08T07:53:34;68.40;;;26.45;;
11596;SDS011;5854;48.072;16.286;2024-03-08T07:56:01;58.80;;;26.95;;
11596;SDS011;5854;48.072;16.286;2024-03-08T07:58:31;77.80;;;27.58;;
11596;SDS011;5854;48.072;16.286;2024-03-08T08:00:58;67.38;;;26.83;;
11596;SDS011;5854;48.072;16.286;2024-03-08T08:03:26;75.93;;;26.85;;
11596;SDS011;5854;48.072;16.286;2024-03-08T08:05:53;61.72;;;25.15;;
11596;SDS011;5854;48.072;16.286;2024-03-08T08:08:20;68.63;;;27.77;;
11596;SDS011;5854;48.072;16.286;2024-03-08T08:10:47;67.68;;;28.70;;
11596;SDS011;5854;48.072;16.286;2024-03-08T08:13:15;68.32;;;26.60;;
11596;SDS011;5854;48.072;16.286;2024-03-08T08:15:44;74.18;;;26.02;;
11596;SDS011;5854;48.072;16.286;2024-03-08T08:18:12;68.82;;;27.17;;
11596;SDS011;5854;48.072;16.286;2024-03-08T08:20:39;79.40;;;27.48;;
11596;SDS011;5854;48.072;16.286;2024-03-08T08:23:06;71.65;;;25.17;;
11596;SDS011;5854;48.072;16.286;2024-03-08T08:25:33;63.13;;;27.60;;
11596;SDS011;5854;48.072;16.286;2024-03-08T08:28:01;76.25;;;25.63;;
11596;SDS011;5854;48.072;16.286;2024-03-08T08:30:29;73.38;;;26.02;;
11596;SDS011;5854;48.072;16.286;2024-03-08T08:32:59;70.82;;;27.02;;
11596;SDS011;5854;48.072;16.286;2024-03-08T08:35:27;68.43;;;24.17;;
11596;SDS011;5854;48.072;16.286;2024-03-08T08:37:54;70.97;;;26.17;;
11596;SDS011;5854;48.072;16.286;2024-03-08T08:40:22;80.55;;;27.98;;
11596;SDS011;5854;48.072;16.286;2024-03-08T08:42:50;85.25;;;29.50;;
11596;SDS011;5854;48.072;16.286;2024-03-08T08:45:18;74.00;;;28.02;;
11596;SDS011;5854;48.072;16.286;2024-03-08T08:47:46;66.13;;;26.13;;
11596;SDS011;5854;48.072;16.286;2024-03-08T08:50:15;67.38;;;26.65;;
11596;SDS011;5854;48.072;16.286;2024-03-08T08:52:48;76.47;;;26.60;;
11596;SDS011;5854;48.072;16.286;2024-03-08T08:55:15;64.75;;;27.48;;
11596;SDS011;5854;48.072;16.286;2024-03-08T08:57:46;63.97;;;26.35;;
11596;SDS011;5854;48.072;16.286;2024-03-08T09:00:14;66.93;;;25.60;;
11596;SDS011;5854;48.072;16.286;2024-03-08T09:02:41;68.93;;;28.17;;
11596;SDS011;5854;48.072;16.286;2024-03-08T09:05:09;63.67;;;23.17;;
11596;SDS011;5854;48.072;16.286;2024-03-08T09:07:38;63.13;;;26.50;;
11596;SDS011;5854;48.072;16.286;2024-03-08T09:10:05;68.85;;;26.95;;
11596;SDS011;5854;48.072;16.286;2024-03-08T09:12:34;57.78;;;25.98;;
11596;SDS011;5854;48.072;16.286;2024-03-08T09:15:02;66.10;;;26.20;;
11596;SDS011;5854;48.072;16.286;2024-03-08T09:17:30;70.28;;;25.10;;
11596;SDS011;5854;48.072;16.286;2024-03-08T09:19:58;68.57;;;25.67;;
11596;SDS011;5854;48.072;16.286;2024-03-08T09:22:25;75.18;;;27.10;;
11596;SDS011;5854;48.072;16.286;2024-03-08T09:24:54;85.82;;;29.10;;
11596;SDS011;5854;48.072;16.286;2024-03-08T09:27:22;86.63;;;25.67;;
11596;SDS011;5854;48.072;16.286;2024-03-08T09:29:49;79.40;;;27.58;;
11596;SDS011;5854;48.072;16.286;2024-03-08T09:32:17;68.88;;;26.38;;
11596;SDS011;5854;48.072;16.286;2024-03-08T09:34:44;69.43;;;25.60;;
11596;SDS011;5854;48.072;16.286;2024-03-08T09:37:11;60.15;;;25.70;;
11596;SDS011;5854;48.072;16.286;2024-03-08T09:39:38;61.65;;;24.55;;
11596;SDS011;5854;48.072;16.286;2024-03-08T09:42:07;62.60;;;25.02;;
11596;SDS011;5854;48.072;16.286;2024-03-08T09:44:36;64.88;;;25.13;;
11596;SDS011;5854;48.072;16.286;2024-03-08T09:47:05;69.20;;;24.88;;
11596;SDS011;5854;48.072;16.286;2024-03-08T09:49:32;53.88;;;23.95;;
11596;SDS011;5854;48.072;16.286;2024-03-08T09:52:00;60.38;;;23.83;;
11596;SDS011;5854;48.072;16.286;2024-03-08T09:54:30;65.75;;;26.85;;
11596;SDS011;5854;48.072;16.286;2024-03-08T09:56:56;57.78;;;23.42;;
11596;SDS011;5854;48.072;16.286;2024-03-08T09:59:25;62.58;;;23.75;;
11596;SDS011;5854;48.072;16.286;2024-03-08T10:02:13;61.38;;;24.65;;
11596;SDS011;5854;48.072;16.286;2024-03-08T10:04:42;62.05;;;25.15;;
11596;SDS011;5854;48.072;16.286;2024-03-08T10:07:11;75.60;;;26.85;;
11596;SDS011;5854;48.072;16.286;2024-03-08T10:09:39;73.35;;;25.65;;
11596;SDS011;5854;48.072;16.286;2024-03-08T10:12:12;70.00;;;24.38;;
11596;SDS011;5854;48.072;16.286;2024-03-08T10:14:41;80.30;;;26.23;;
11596;SDS011;5854;48.072;16.286;2024-03-08T10:17:08;81.50;;;27.88;;
11596;SDS011;5854;48.072;16.286;2024-03-08T10:19:36;72.13;;;26.80;;
11596;SDS011;5854;48.072;16.286;2024-03-08T10:22:04;59.58;;;24.05;;
11596;SDS011;5854;48.072;16.286;2024-03-08T10:24:31;70.50;;;26.42;;
11596;SDS011;5854;48.072;16.286;2024-03-08T10:27:00;71.38;;;23.00;;
11596;SDS011;5854;48.072;16.286;2024-03-08T10:29:30;69.47;;;22.75;;
11596;SDS011;5854;48.072;16.286;2024-03-08T10:31:59;51.15;;;20.00;;
11596;SDS011;5854;48.072;16.286;2024-03-08T10:34:30;56.17;;;22.60;;
11596;SDS011;5854;48.072;16.286;2024-03-08T10:36:59;46.30;;;20.40;;
11596;SDS011;5854;48.072;16.286;2024-03-08T10:39:32;62.42;;;21.73;;
11596;SDS011;5854;48.072;16.286;2024-03-08T10:42:03;44.58;;;19.33;;
11596;SDS011;5854;48.072;16.286;2024-03-08T10:44:36;47.88;;;19.13;;
11596;SDS011;5854;48.072;16.286;2024-03-08T10:47:19;39.05;;;16.55;;
11596;SDS011;5854;48.072;16.286;2024-03-08T10:49:57;44.90;;;19.20;;
11596;SDS011;5854;48.072;16.286;2024-03-08T10:52:38;42.85;;;17.52;;
11596;SDS011;5854;48.072;16.286;2024-03-08T10:55:05;41.58;;;18.65;;
11596;SDS011;5854;48.072;16.286;2024-03-08T11:00:06;27.48;;;14.27;;
11596;SDS011;5854;48.072;16.286;2024-03-08T11:02:37;43.65;;;17.50;;
11596;SDS011;5854;48.072;16.286;2024-03-08T11:05:04;35.45;;;16.58;;
11596;SDS011;5854;48.072;16.286;2024-03-08T11:07:40;34.70;;;15.82;;
11596;SDS011;5854;48.072;16.286;2024-03-08T11:10:18;36.50;;;15.57;;
11596;SDS011;5854;48.072;16.286;2024-03-08T11:12:46;39.92;;;17.23;;
11596;SDS011;5854;48.072;16.286;2024-03-08T11:15:14;32.10;;;14.85;;
11596;SDS011;5854;48.072;16.286;2024-03-08T11:17:48;29.48;;;14.77;;
11596;SDS011;5854;48.072;16.286;2024-03-08T11:20:17;25.33;;;11.93;;
11596;SDS011;5854;48.072;16.286;2024-03-08T11:22:49;33.03;;;14.07;;
11596;SDS011;5854;48.072;16.286;2024-03-08T11:25:31;31.20;;;12.05;;
11596;SDS011;5854;48.072;16.286;2024-03-08T11:28:09;19.38;;;11.32;;
11596;SDS011;5854;48.072;16.286;2024-03-08T11:30:46;20.95;;;10.93;;
11596;SDS011;5854;48.072;16.286;2024-03-08T11:33:49;22.23;;;11.10;;
11596;SDS011;5854;48.072;16.286;2024-03-08T11:36:20;28.88;;;11.68;;
11596;SDS011;5854;48.072;16.286;2024-03-08T11:38:49;21.08;;;11.05;;
11596;SDS011;5854;48.072;16.286;2024-03-08T11:41:18;23.25;;;11.48;;
11596;SDS011;5854;48.072;16.286;2024-03-08T11:43:48;16.55;;;9.43;;
11596;SDS011;5854;48.072;16.286;2024-03-08T11:46:20;10.77;;;8.05;;
11596;SDS011;5854;48.072;16.286;2024-03-08T11:48:50;23.92;;;12.23;;
11596;SDS011;5854;48.072;16.286;2024-03-08T11:51:22;27.50;;;12.88;;
11596;SDS011;5854;48.072;16.286;2024-03-08T11:53:49;21.40;;;12.10;;
11596;SDS011;5854;48.072;16.286;2024-03-08T11:56:16;22.27;;;12.13;;
11596;SDS011;5854;48.072;16.286;2024-03-08T11:58:52;24.80;;;11.70;;
11596;SDS011;5854;48.072;16.286;2024-03-08T12:01:22;16.67;;;10.73;;
11596;SDS011;5854;48.072;16.286;2024-03-08T12:03:53;24.40;;;11.90;;
11596;SDS011;5854;48.072;16.286;2024-03-08T12:06:24;19.52;;;12.43;;
11596;SDS011;5854;48.072;16.286;2024-03-08T12:08:52;22.10;;;11.23;;
11596;SDS011;5854;48.072;16.286;2024-03-08T12:11:19;22.17;;;11.68;;
11596;SDS011;5854;48.072;16.286;2024-03-08T12:13:48;20.42;;;9.05;;
11596;SDS011;5854;48.072;16.286;2024-03-08T12:16:16;20.15;;;11.50;;
11596;SDS011;5854;48.072;16.286;2024-03-08T12:18:44;20.60;;;11.68;;
11596;SDS011;5854;48.072;16.286;2024-03-08T12:21:14;24.08;;;12.93;;
11596;SDS011;5854;48.072;16.286;2024-03-08T12:23:46;23.08;;;12.70;;
11596;SDS011;5854;48.072;16.286;2024-03-08T12:26:16;23.10;;;11.48;;
11596;SDS011;5854;48.072;16.286;2024-03-08T12:28:51;19.90;;;11.57;;
11596;SDS011;5854;48.072;16.286;2024-03-08T12:31:18;25.83;;;12.20;;
11596;SDS011;5854;48.072;16.286;2024-03-08T12:33:48;25.50;;;11.75;;
11596;SDS011;5854;48.072;16.286;2024-03-08T12:36:17;22.48;;;12.43;;
11596;SDS011;5854;48.072;16.286;2024-03-08T12:38:46;19.75;;;13.02;;
11596;SDS011;5854;48.072;16.286;2024-03-08T12:41:14;22.08;;;10.23;;
11596;SDS011;5854;48.072;16.286;2024-03-08T12:43:42;16.05;;;10.95;;
11596;SDS011;5854;48.072;16.286;2024-03-08T12:46:14;18.13;;;10.55;;
11596;SDS011;5854;48.072;16.286;2024-03-08T12:48:44;16.15;;;10.23;;
11596;SDS011;5854;48.072;16.286;2024-03-08T12:51:12;22.30;;;11.95;;
11596;SDS011;5854;48.072;16.286;2024-03-08T12:53:42;17.88;;;10.57;;
11596;SDS011;5854;48.072;16.286;2024-03-08T12:56:10;16.50;;;10.27;;
11596;SDS011;5854;48.072;16.286;2024-03-08T12:58:38;16.05;;;10.30;;
11596;SDS011;5854;48.072;16.286;2024-03-08T13:01:06;22.83;;;10.23;;
11596;SDS011;5854;48.072;16.286;2024-03-08T13:03:43;16.67;;;10.00;;
11596;SDS011;5854;48.072;16.286;2024-03-08T13:06:15;22.67;;;9.75;;
11596;SDS011;5854;48.072;16.286;2024-03-08T13:08:44;13.55;;;7.15;;
11596;SDS011;5854;48.072;16.286;2024-03-08T13:11:11;18.10;;;10.13;;
11596;SDS011;5854;48.072;16.286;2024-03-08T13:13:39;18.30;;;10.85;;
11596;SDS011;5854;48.072;16.286;2024-03-08T13:16:07;16.10;;;10.25;;
11596;SDS011;5854;48.072;16.286;2024-03-08T13:18:36;15.52;;;10.52;;
11596;SDS011;5854;48.072;16.286;2024-03-08T13:21:04;7.93;;;6.03;;
11596;SDS011;5854;48.072;16.286;2024-03-08T13:23:33;17.55;;;10.32;;
11596;SDS011;5854;48.072;16.286;2024-03-08T13:26:05;14.93;;;10.07;;
11596;SDS011;5854;48.072;16.286;2024-03-08T13:28:33;12.40;;;8.15;;
11596;SDS011;5854;48.072;16.286;2024-03-08T13:31:03;20.05;;;10.98;;
11596;SDS011;5854;48.072;16.286;2024-03-08T13:33:35;19.35;;;10.43;;
11596;SDS011;5854;48.072;16.286;2024-03-08T13:36:04;18.45;;;11.50;;
11596;SDS011;5854;48.072;16.286;2024-03-08T13:38:39;20.17;;;10.38;;
11596;SDS011;5854;48.072;16.286;2024-03-08T13:41:10;22.85;;;11.18;;
11596;SDS011;5854;48.072;16.286;2024-03-08T13:43:40;23.42;;;11.70;;
11596;SDS011;5854;48.072;16.286;2024-03-08T13:46:07;32.45;;;12.05;;
11596;SDS011;5854;48.072;16.286;2024-03-08T13:48:36;18.65;;;10.98;;
11596;SDS011;5854;48.072;16.286;2024-03-08T13:51:04;14.75;;;9.25;;
11596;SDS011;5854;48.072;16.286;2024-03-08T13:53:32;19.95;;;11.00;;
11596;SDS011;5854;48.072;16.286;2024-03-08T13:56:00;16.90;;;9.57;;
11596;SDS011;5854;48.072;16.286;2024-03-08T13:58:29;15.77;;;10.45;;
11596;SDS011;5854;48.072;16.286;2024-03-08T14:00:56;23.45;;;11.50;;
11596;SDS011;5854;48.072;16.286;2024-03-08T14:03:24;16.83;;;10.73;;
11596;SDS011;5854;48.072;16.286;2024-03-08T14:05:51;15.57;;;9.65;;
11596;SDS011;5854;48.072;16.286;2024-03-08T14:08:20;22.98;;;11.25;;
11596;SDS011;5854;48.072;16.286;2024-03-08T14:10:49;16.23;;;9.90;;
11596;SDS011;5854;48.072;16.286;2024-03-08T14:13:18;15.70;;;10.75;;
11596;SDS011;5854;48.072;16.286;2024-03-08T14:15:47;23.00;;;11.48;;
11596;SDS011;5854;48.072;16.286;2024-03-08T14:18:15;19.83;;;10.45;;
11596;SDS011;5854;48.072;16.286;2024-03-08T14:23:17;14.43;;;9.80;;
11596;SDS011;5854;48.072;16.286;2024-03-08T14:25:45;20.80;;;11.05;;
11596;SDS011;5854;48.072;16.286;2024-03-08T14:28:14;21.38;;;9.32;;
11596;SDS011;5854;48.072;16.286;2024-03-08T14:30:46;19.40;;;10.70;;
11596;SDS011;5854;48.072;16.286;2024-03-08T14:33:15;10.38;;;8.13;;
11596;SDS011;5854;48.072;16.286;2024-03-08T14:35:42;18.45;;;11.05;;